• Join FlightAware (Why Join?)
  • Login
  • US Flag 
06:17AM EDT


 

Airport Tracker/Info


-or-


 

Live Flight TrackerFlight Track Log ✈ UAL109 ✈ 08-Jul-2013 ✈ EGPH / EDI - KEWR

Flight Track Log - Related Links

Times and Time Zones

All times are in EDT time to prevent confusion due to time zone crossing. See the UAL109 flight status page for this flight to view local times or setup timezone preferences in your user account.

Time Position Orientation Groundspeed Altitude Reporting Facility
EDT Latitude Longitude Course Direction KTS MPH feet Rate Location/Type
07:04AM 55.9480 -3.3670 262° West 1 1  Level FlightAware
07:05AM 55.9480 -3.3680 270° West 1 1  Level FlightAware
07:08AM 55.9883 -3.8584 282° West  Level FlightAware Approximate
07:09AM 56.0110 -4.0518 282° West  Level FlightAware Approximate
07:10AM 56.0308 -4.2457 283° West  Level FlightAware Approximate
07:10AM 55.9490 -3.3690 283° West 9 10  Level FlightAware
07:11AM 55.9500 -3.3660 59° Northeast 16 18 60 Level FlightAware
07:12AM 55.9530 -3.3570 59° Northeast 17 20 60 Level FlightAware
07:12AM 55.9540 -3.3550 48° Northeast 9 10 120 Level FlightAware
07:15AM 55.9785 -3.7733 281° West  Level FlightAware Approximate
07:15AM 55.9550 -3.3560 281° West 8 9  Level FlightAware
07:15AM 55.9540 -3.3580 228° Southwest 34 39 420 Level FlightAware
07:16AM 55.9400 -3.3990 239° Southwest 184 212 600 Level FlightAware
07:16AM 55.9350 -3.4120 236° Southwest 184 212 600 2,880 Climbing FlightAware
07:17AM 55.9220 -3.4500 239° Southwest 182 209 2,000 2,460 Climbing FlightAware
07:17AM 55.9100 -3.4840 238° Southwest 187 215 2,900 1,680 Climbing FlightAware
07:18AM 55.9020 -3.5140 245° Southwest 214 246 3,300 1,440 Climbing FlightAware
07:18AM 55.8990 -3.5590 263° West 234 269 4,000 2,040 Climbing FlightAware
07:18AM 55.8920 -3.6190 258° West 244 281 5,200 2,220 Climbing FlightAware
07:19AM 55.8900 -3.6370 259° West 254 292 5,500 1,020 Climbing FlightAware
07:19AM 55.8840 -3.7010 261° West 297 342 5,900 840 Climbing FlightAware
07:20AM 55.8770 -3.7720 260° West 332 382 6,300 1,680 Climbing FlightAware
07:20AM 55.8696 -3.8578 260° West 352 405 7,500 2,400 Climbing FlightAware UK
07:20AM 55.8680 -3.8540 260° West 344 396 7,500 2,880 Level FlightAware
07:20AM 55.8610 -3.9250 260° West 346 398 8,700 2,580 Climbing FlightAware
07:21AM 55.8460 -4.0500 258° West 355 409 10,600 2,400 Climbing FlightAware
07:22AM 55.8050 -4.1460 233° Southwest 368 423 12,200 2,280 Climbing FlightAware
07:23AM 55.7500 -4.2470 226° Southwest 379 436 13,900 2,220 Climbing FlightAware
07:23AM 55.7072 -4.3303 226° Southwest 394 453 15,200 2,160 Climbing FlightAware UK
07:23AM 55.7010 -4.3390 226° Southwest 389 448 15,400 2,040 Climbing FlightAware
07:24AM 55.6500 -4.4330 226° Southwest 396 456 16,800 2,040 Climbing FlightAware
07:25AM 55.6093 -4.5127 226° Southwest 412 474 17,900 2,100 Climbing FlightAware UK
07:25AM 55.5980 -4.5290 226° Southwest 402 463 18,200 1,980 Climbing FlightAware
07:25AM 55.5637 -4.6466 226° Southwest 418 481 19,500 1,860 Climbing FlightAware UK
07:25AM 55.5620 -4.6380 226° Southwest 405 466 19,500 1,620 Level FlightAware
07:26AM 55.5520 -4.8000 264° West 413 475 20,800 1,740 Climbing FlightAware
07:27AM 55.5440 -4.9320 264° West 419 482 22,000 1,620 Climbing FlightAware
07:27AM 55.5375 -5.0490 264° West 440 506 22,800 1,560 Climbing FlightAware UK
07:28AM 55.5300 -5.0890 264° West 426 490 23,200 1,440 Climbing FlightAware
07:28AM 55.5200 -5.2060 261° West 432 497 24,000 1,380 Climbing FlightAware
07:29AM 55.5050 -5.3720 261° West 440 506 25,100 1,380 Climbing FlightAware
07:30AM 55.4910 -5.5150 260° West 446 513 26,000 1,080 Climbing FlightAware
07:30AM 55.4780 -5.6570 260° West 457 526 26,600 900 Climbing FlightAware
07:30AM 55.4804 -5.6842 260° West 472 543 26,700 1,020 Climbing FlightAware UK
07:31AM 55.4620 -5.8280 260° West 466 536 27,400 960 Climbing FlightAware
07:31AM 55.4659 -5.8410 260° West 482 555 27,400 1,260 Level FlightAware UK
07:32AM 55.4553 -5.9530 260° West 478 550 28,100 1,380 Climbing FlightAware UK
07:32AM 55.4470 -5.9850 260° West 465 535 28,400 1,380 Climbing FlightAware
07:32AM 55.4330 -6.1310 260° West 465 535 29,300 1,320 Climbing FlightAware
07:33AM 55.4210 -6.3098 260° West 474 545 30,300 1,260 Climbing FlightAware UK
07:33AM 55.4150 -6.3130 260° West 466 536 30,300 1,380 Level FlightAware
07:34AM 55.4010 -6.4490 260° West 465 535 31,200 1,380 Climbing FlightAware
07:34AM 55.3900 -6.5930 262° West 459 528 32,100 1,320 Climbing FlightAware
07:35AM 55.3870 -6.7450 262° West 456 525 33,000 1,260 Climbing FlightAware
07:35AM 55.3940 -6.7551 262° West 468 539 33,000 1,080 Level FlightAware UK
07:36AM 55.3915 -6.8656 262° West 466 536 33,600 1,260 Climbing FlightAware UK
07:36AM 55.3830 -6.8930 262° West 454 522 33,800 540 Climbing FlightAware
07:36AM 55.3790 -7.0170 267° West 456 525 34,000 120 Climbing FlightAware
07:37AM 55.3770 -7.1850 269° West 454 522 34,000  Level FlightAware
07:38AM 55.3825 -7.3070 269° West 466 536 34,000  Level FlightAware UK
07:38AM 55.3740 -7.3290 269° West 452 520 34,000  Level FlightAware
07:39AM 55.3700 -7.4950 268° West 449 517 34,000  Level FlightAware
07:39AM 55.3670 -7.6390 268° West 447 514 34,000  Level FlightAware
07:39AM 55.3751 -7.6559 268° West 464 534 34,000  Level FlightAware UK
07:40AM 55.3727 -7.7644 268° West 464 534 34,000  Level FlightAware UK
07:40AM 55.3640 -7.7680 268° West 446 513 34,000  Level FlightAware
07:41AM 55.3600 -7.9330 268° West 445 512 34,000  Level FlightAware
07:41AM 55.3653 -8.0884 268° West 460 529 34,000  Level FlightAware UK
07:41AM 55.3550 -8.1100 268° West 444 511 34,000  Level FlightAware
07:42AM 55.3510 -8.2760 268° West 444 511 34,000  Level FlightAware
07:43AM 55.3480 -8.3990 268° West 444 511 34,000  Level FlightAware
07:43AM 55.3570 -8.4118 268° West 462 532 34,000  Level FlightAware UK
07:43AM 55.3542 -8.5196 268° West 462 532 34,000  Level FlightAware UK
07:43AM 55.3440 -8.5240 268° West 443 510 34,000  Level FlightAware
07:44AM 55.3380 -8.7050 267° West 443 510 34,000  Level FlightAware
07:45AM 55.3350 -8.8320 268° West 444 511 34,000  Level FlightAware
07:45AM 55.3407 -8.9713 268° West 464 534 34,000  Level FlightAware UK
07:45AM 55.3290 -8.9930 268° West 444 511 34,000  Level FlightAware
07:46AM 55.3250 -9.1350 267° West 444 511 34,000  Level FlightAware
07:47AM 55.3190 -9.2990 266° West 445 512 34,000  Level FlightAware
07:48AM 55.3140 -9.4400 266° West 444 511 34,000  Level FlightAware
07:48AM 55.3090 -9.5680 266° West 444 511 34,000  Level FlightAware
07:49AM 55.3040 -9.7100 267° West 444 511 34,000  Level FlightAware
07:50AM 55.2970 -9.8700 266° West 445 512 34,000  Level FlightAware
07:50AM 55.2910 -10.0150 266° West 444 511 34,000  Level FlightAware
07:51AM 55.2860 -10.1430 266° West 444 511 34,000  Level FlightAware
07:52AM 55.2790 -10.3020 266° West 444 511 34,000  Level FlightAware
07:52AM 55.2740 -10.4300 266° West 444 511 34,000  Level FlightAware
07:53AM 55.2680 -10.5690 266° West 445 512 34,000  Level FlightAware
07:54AM 55.2600 -10.7310 265° West 445 512 34,000  Level FlightAware
07:54AM 55.2510 -10.9210 265° West 445 512 34,000  Level FlightAware
07:55AM 55.2440 -11.0730 265° West 445 512 34,000  Level FlightAware
07:56AM 55.2360 -11.2550 266° West 445 512 34,000  Level FlightAware
07:57AM 55.2260 -11.4260 264° West 445 512 34,000  Level FlightAware
07:57AM 55.2190 -11.5650 265° West 446 513 34,000  Level FlightAware
07:58AM 55.2120 -11.6930 265° West 445 512 34,000  Level FlightAware
07:59AM 55.2040 -11.8530 265° West 445 512 34,000  Level FlightAware
08:00AM 55.1890 -12.1120 264° West 445 512 34,000  Level FlightAware
08:01AM 55.1810 -12.2570 265° West 446 513 34,000  Level FlightAware
08:01AM 55.1720 -12.4000 264° West 446 513 34,000  Level FlightAware
08:02AM 55.1670 -12.5130 266° West 446 513 34,000  Level FlightAware
08:03AM 55.1510 -12.7480 263° West 448 516 34,000  Level FlightAware
08:04AM 55.1430 -12.8880 264° West 448 516 34,000 240 Level FlightAware
08:04AM 55.1360 -13.0000 264° West 447 514 34,300 780 Climbing FlightAware
08:05AM 55.1260 -13.1540 264° West 445 512 35,000 480 Climbing FlightAware
08:05AM 55.1170 -13.2960 264° West 445 512 35,000  Level FlightAware
08:06AM 55.1040 -13.4730 263° West 444 511 35,000  Level FlightAware
08:07AM 55.0970 -13.5890 264° West 440 506 35,000  Level FlightAware
08:08AM 55.0860 -13.7390 263° West 440 506 35,000  Level FlightAware
08:08AM 55.0790 -13.8470 264° West 440 506 35,000  Level FlightAware
08:09AM 55.0710 -13.9490 262° West 440 506 35,000  Level FlightAware
08:10AM 55.0620 -14.0870 264° West 440 506 35,000  Level FlightAware
08:10AM 55.0540 -14.1950 263° West 440 506 35,000  Level FlightAware
08:12AM 55.0330 -14.4890 263° West 440 506 35,000  Level FlightAware
08:13AM 55.0250 -14.6000 263° West 440 506 35,000  Level FlightAware
08:14AM 55.0130 -14.7800 263° West 440 506 35,000  Level FlightAware
08:14AM 55.0050 -14.8910 263° West 440 506 35,000  Level FlightAware
08:15AM 54.9970 -14.9980 263° West 440 506 35,000  Level FlightAware
08:15AM 54.9880 -15.1300 263° West 440 506 35,000  Level FlightAware
08:16AM 54.9780 -15.2770 263° West 440 506 35,000  Level FlightAware
08:19AM 54.9988 -15.7362 275° West  Level Estimated
08:20AM 55.0076 -15.9436 274° West  Level Estimated
08:21AM 55.0161 -16.1510 274° West  Level Estimated
08:22AM 55.0242 -16.3585 274° West  Level Estimated
08:23AM 55.0319 -16.5661 274° West  Level Estimated
08:24AM 55.0393 -16.7738 274° West  Level Estimated
08:25AM 55.0464 -16.9815 273° West  Level Estimated
08:26AM 55.0531 -17.1893 273° West  Level Estimated
08:27AM 55.0594 -17.3972 273° West  Level Estimated
08:28AM 55.0654 -17.6051 273° West  Level Estimated
08:29AM 55.0710 -17.8131 273° West  Level Estimated
08:30AM 55.0763 -18.0212 273° West  Level Estimated
08:31AM 55.0812 -18.2293 272° West  Level Estimated
08:32AM 55.0858 -18.4375 272° West  Level Estimated
08:33AM 55.0900 -18.6457 272° West  Level Estimated
08:34AM 55.0939 -18.8539 272° West  Level Estimated
08:35AM 55.0974 -19.0622 272° West  Level Estimated
08:36AM 55.1005 -19.2705 272° West  Level Estimated
08:37AM 55.1033 -19.4789 271° West  Level Estimated
08:38AM 55.1057 -19.6873 271° West  Level Estimated
08:39AM 55.1078 -19.8957 271° West  Level Estimated
08:39AM 55.0000 -20.0000 284° West 459 528 35,000  Level ETMS Enhanced Traffic Management System
08:40AM 55.1095 -20.1041 271° West  Level Estimated
08:41AM 55.1109 -20.3125 271° West  Level Estimated
08:42AM 55.1119 -20.5210 271° West  Level Estimated
08:43AM 55.1126 -20.7295 270° West  Level Estimated
08:44AM 55.1129 -20.9379 270° West  Level Estimated
08:45AM 55.2368 -21.7377 283° West 459 528 35,000  Level FlightAware Transoceanic
08:46AM 55.2646 -21.9564 283° West 459 528 35,000  Level FlightAware Transoceanic
08:47AM 55.2920 -22.1753 282° West 459 528 35,000  Level FlightAware Transoceanic
08:48AM 55.3191 -22.3946 282° West 459 528 35,000  Level FlightAware Transoceanic
08:49AM 55.3458 -22.6141 282° West 459 528 35,000  Level FlightAware Transoceanic
08:50AM 55.3721 -22.8340 282° West 459 528 35,000  Level FlightAware Transoceanic
08:51AM 55.3979 -23.0541 282° West 459 528 35,000  Level FlightAware Transoceanic
08:52AM 55.4234 -23.2745 281° West 459 528 35,000  Level FlightAware Transoceanic
08:53AM 55.4485 -23.4952 281° West 459 528 35,000  Level FlightAware Transoceanic
08:54AM 55.4732 -23.7162 281° West 459 528 35,000  Level FlightAware Transoceanic
08:55AM 55.4975 -23.9374 281° West 459 528 35,000  Level FlightAware Transoceanic
08:56AM 55.5214 -24.1590 281° West 459 528 35,000  Level FlightAware Transoceanic
08:57AM 55.5449 -24.3807 281° West 459 528 35,000  Level FlightAware Transoceanic
08:58AM 55.5680 -24.6028 280° West 459 528 35,000  Level FlightAware Transoceanic
08:59AM 55.5907 -24.8251 280° West 459 528 35,000  Level FlightAware Transoceanic
09:00AM 55.6130 -25.0477 280° West 459 528 35,000  Level FlightAware Transoceanic
09:01AM 55.6349 -25.2705 280° West 459 528 35,000  Level FlightAware Transoceanic
09:02AM 55.6563 -25.4935 280° West 459 528 35,000  Level FlightAware Transoceanic
09:03AM 55.6774 -25.7169 279° West 459 528 35,000  Level FlightAware Transoceanic
09:04AM 55.6981 -25.9404 279° West 459 528 35,000  Level FlightAware Transoceanic
09:05AM 55.7183 -26.1642 279° West 459 528 35,000  Level FlightAware Transoceanic
09:06AM 55.7382 -26.3882 279° West 459 528 35,000  Level FlightAware Transoceanic
09:07AM 55.7577 -26.6124 279° West 459 528 35,000  Level FlightAware Transoceanic
09:08AM 55.7767 -26.8369 278° West 459 528 35,000  Level FlightAware Transoceanic
09:09AM 55.7953 -27.0615 278° West 459 528 35,000  Level FlightAware Transoceanic
09:10AM 55.8135 -27.2864 278° West 459 528 35,000  Level FlightAware Transoceanic
09:11AM 55.8314 -27.5115 278° West 459 528 35,000  Level FlightAware Transoceanic
09:12AM 55.8488 -27.7368 278° West 459 528 35,000  Level FlightAware Transoceanic
09:13AM 55.8657 -27.9623 278° West 459 528 35,000  Level FlightAware Transoceanic
09:14AM 55.8823 -28.1880 277° West 459 528 35,000  Level FlightAware Transoceanic
09:15AM 55.8985 -28.4139 277° West 459 528 35,000  Level FlightAware Transoceanic
09:16AM 55.9142 -28.6399 277° West 459 528 35,000  Level FlightAware Transoceanic
09:17AM 55.9296 -28.8662 277° West 459 528 35,000  Level FlightAware Transoceanic
09:18AM 55.9445 -29.0926 277° West 459 528 35,000  Level FlightAware Transoceanic
09:19AM 55.9590 -29.3192 276° West 459 528 35,000  Level FlightAware Transoceanic
09:20AM 55.9731 -29.5460 276° West 459 528 35,000  Level FlightAware Transoceanic
09:21AM 55.9868 -29.7729 276° West 459 528 35,000  Level FlightAware Transoceanic
09:22AM 55.9991 -29.9849 276° West  Level FlightAware Approximate
09:23AM 56.0112 -30.1971 276° West  Level FlightAware Approximate
09:24AM 56.0253 -30.1773 284° West  Level FlightAware Approximate
09:25AM 56.0545 -30.3843 284° West  Level FlightAware Approximate
09:26AM 56.0834 -30.5916 284° West  Level FlightAware Approximate
09:26AM 56.0000 -30.0000 284° West 448 516 35,000  Level ETMS Enhanced Traffic Management System
09:27AM 56.1118 -30.7992 284° West  Level FlightAware Approximate
09:28AM 56.1400 -31.0070 284° West  Level FlightAware Approximate
09:29AM 56.1678 -31.2152 284° West  Level FlightAware Approximate
09:30AM 56.1952 -31.4237 283° West  Level FlightAware Approximate
09:31AM 56.2223 -31.6325 283° West  Level FlightAware Approximate
09:32AM 56.2911 -32.1736 283° West 448 516 35,000  Level FlightAware Transoceanic
09:33AM 56.3181 -32.3927 282° West 448 516 35,000  Level FlightAware Transoceanic
09:34AM 56.3447 -32.6122 282° West 448 516 35,000  Level FlightAware Transoceanic
09:35AM 56.3709 -32.8319 282° West 448 516 35,000  Level FlightAware Transoceanic
09:36AM 56.3967 -33.0520 282° West 448 516 35,000  Level FlightAware Transoceanic
09:37AM 56.4222 -33.2723 282° West 448 516 35,000  Level FlightAware Transoceanic
09:38AM 56.4472 -33.4929 282° West 448 516 35,000  Level FlightAware Transoceanic
09:39AM 56.4719 -33.7138 281° West 448 516 35,000  Level FlightAware Transoceanic
09:40AM 56.4961 -33.9351 281° West 448 516 35,000  Level FlightAware Transoceanic
09:41AM 56.5200 -34.1566 281° West 448 516 35,000  Level FlightAware Transoceanic
09:42AM 56.5435 -34.3783 281° West 448 516 35,000  Level FlightAware Transoceanic
09:43AM 56.5666 -34.6003 281° West 448 516 35,000  Level FlightAware Transoceanic
09:44AM 56.5892 -34.8227 280° West 448 516 35,000  Level FlightAware Transoceanic
09:45AM 56.6115 -35.0452 280° West 448 516 35,000  Level FlightAware Transoceanic
09:46AM 56.6334 -35.2681 280° West 448 516 35,000  Level FlightAware Transoceanic
09:47AM 56.6549 -35.4911 280° West 448 516 35,000  Level FlightAware Transoceanic
09:48AM 56.6760 -35.7145 280° West 448 516 35,000  Level FlightAware Transoceanic
09:49AM 56.6967 -35.9381 279° West 448 516 35,000  Level FlightAware Transoceanic
09:50AM 56.7170 -36.1619 279° West 448 516 35,000  Level FlightAware Transoceanic
09:51AM 56.7369 -36.3860 279° West 448 516 35,000  Level FlightAware Transoceanic
09:52AM 56.7564 -36.6103 279° West 448 516 35,000  Level FlightAware Transoceanic
09:53AM 56.7755 -36.8348 279° West 448 516 35,000  Level FlightAware Transoceanic
09:54AM 56.7942 -37.0596 279° West 448 516 35,000  Level FlightAware Transoceanic
09:55AM 56.8124 -37.2846 278° West 448 516 35,000  Level FlightAware Transoceanic
09:56AM 56.8303 -37.5098 278° West 448 516 35,000  Level FlightAware Transoceanic
09:57AM 56.8478 -37.7352 278° West 448 516 35,000  Level FlightAware Transoceanic
09:58AM 56.8648 -37.9608 278° West 448 516 35,000  Level FlightAware Transoceanic
09:59AM 56.8815 -38.1866 278° West 448 516 35,000  Level FlightAware Transoceanic
10:00AM 56.8977 -38.4127 277° West 448 516 35,000  Level FlightAware Transoceanic
10:01AM 56.9136 -38.6389 277° West 448 516 35,000  Level FlightAware Transoceanic
10:02AM 56.9290 -38.8653 277° West 448 516 35,000  Level FlightAware Transoceanic
10:03AM 56.9440 -39.0919 277° West 448 516 35,000  Level FlightAware Transoceanic
10:04AM 56.9586 -39.3186 277° West 448 516 35,000  Level FlightAware Transoceanic
10:05AM 56.9728 -39.5456 276° West 448 516 35,000  Level FlightAware Transoceanic
10:06AM 56.9866 -39.7727 276° West 448 516 35,000  Level FlightAware Transoceanic
10:07AM 56.9994 -39.9903 276° West  Level FlightAware Approximate
10:08AM 57.0119 -40.2081 276° West  Level FlightAware Approximate
10:08AM 57.0000 -40.0000 285° West 446 513 35,000  Level ETMS Enhanced Traffic Management System
10:09AM 57.0267 -40.1935 284° West  Level FlightAware Approximate
10:10AM 57.0556 -40.4061 284° West  Level FlightAware Approximate
10:11AM 57.0841 -40.6190 284° West  Level FlightAware Approximate
10:12AM 57.1124 -40.8323 284° West  Level FlightAware Approximate
10:13AM 57.1402 -41.0459 284° West  Level FlightAware Approximate
10:14AM 57.2401 -41.7744 283° West 446 513 35,000  Level FlightAware Transoceanic
10:15AM 57.2683 -41.9978 283° West 446 513 35,000  Level FlightAware Transoceanic
10:16AM 57.2961 -42.2215 283° West 446 513 35,000  Level FlightAware Transoceanic
10:17AM 57.3236 -42.4456 283° West 446 513 35,000  Level FlightAware Transoceanic
10:18AM 57.3506 -42.6700 282° West 446 513 35,000  Level FlightAware Transoceanic
10:19AM 57.3773 -42.8947 282° West 446 513 35,000  Level FlightAware Transoceanic
10:20AM 57.4035 -43.1198 282° West 446 513 35,000  Level FlightAware Transoceanic
10:21AM 57.4293 -43.3451 282° West 446 513 35,000  Level FlightAware Transoceanic
10:22AM 57.4548 -43.5708 282° West 446 513 35,000  Level FlightAware Transoceanic
10:23AM 57.4798 -43.7968 282° West 446 513 35,000  Level FlightAware Transoceanic
10:24AM 57.5044 -44.0231 281° West 446 513 35,000  Level FlightAware Transoceanic
10:25AM 57.5287 -44.2497 281° West 446 513 35,000  Level FlightAware Transoceanic
10:26AM 57.5525 -44.4766 281° West 446 513 35,000  Level FlightAware Transoceanic
10:27AM 57.5759 -44.7038 281° West 446 513 35,000  Level FlightAware Transoceanic
10:28AM 57.5989 -44.9313 281° West 446 513 35,000  Level FlightAware Transoceanic
10:29AM 57.6215 -45.1591 280° West 446 513 35,000  Level FlightAware Transoceanic
10:30AM 57.6437 -45.3872 280° West 446 513 35,000  Level FlightAware Transoceanic
10:31AM 57.6654 -45.6155 280° West 446 513 35,000  Level FlightAware Transoceanic
10:32AM 57.6868 -45.8441 280° West 446 513 35,000  Level FlightAware Transoceanic
10:33AM 57.7077 -46.0730 280° West 446 513 35,000  Level FlightAware Transoceanic
10:34AM 57.7283 -46.3021 279° West 446 513 35,000  Level FlightAware Transoceanic
10:35AM 57.7484 -46.5315 279° West 446 513 35,000  Level FlightAware Transoceanic
10:36AM 57.7681 -46.7612 279° West 446 513 35,000  Level FlightAware Transoceanic
10:37AM 57.7874 -46.9911 279° West 446 513 35,000  Level FlightAware Transoceanic
10:38AM 57.8063 -47.2212 279° West 446 513 35,000  Level FlightAware Transoceanic
10:39AM 57.8247 -47.4516 278° West 446 513 35,000  Level FlightAware Transoceanic
10:40AM 57.8428 -47.6822 278° West 446 513 35,000  Level FlightAware Transoceanic
10:41AM 57.8604 -47.9130 278° West 446 513 35,000  Level FlightAware Transoceanic
10:42AM 57.8776 -48.1441 278° West 446 513 35,000  Level FlightAware Transoceanic
10:43AM 57.8944 -48.3754 278° West 446 513 35,000  Level FlightAware Transoceanic
10:44AM 57.9107 -48.6068 277° West 446 513 35,000  Level FlightAware Transoceanic
10:45AM 57.9267 -48.8386 277° West 446 513 35,000  Level FlightAware Transoceanic
10:46AM 57.9422 -49.0705 277° West 446 513 35,000  Level FlightAware Transoceanic
10:47AM 57.9573 -49.3026 277° West 446 513 35,000  Level FlightAware Transoceanic
10:48AM 57.9719 -49.5349 277° West 446 513 35,000  Level FlightAware Transoceanic
10:49AM 57.9862 -49.7673 276° West 446 513 35,000  Level FlightAware Transoceanic
10:50AM 57.9995 -49.9909 276° West  Level FlightAware Approximate
10:50AM 58.0000 -50.0000 252° West 444 511 35,000  Level ETMS Enhanced Traffic Management System
10:51AM 58.0123 -50.2146 276° West  Level FlightAware Approximate
10:52AM 57.9622 -50.1939 250° West  Level FlightAware Approximate
10:53AM 57.9206 -50.4044 250° West  Level FlightAware Approximate
10:54AM 57.8787 -50.6145 250° West  Level FlightAware Approximate
10:55AM 57.8365 -50.8241 249° West  Level FlightAware Approximate
10:56AM 57.7294 -51.5403 251° West 444 511 35,000  Level FlightAware Transoceanic
10:57AM 57.6893 -51.7584 251° West 444 511 35,000  Level FlightAware Transoceanic
10:58AM 57.6487 -51.9761 251° West 444 511 35,000  Level FlightAware Transoceanic
10:59AM 57.6078 -52.1932 251° West 444 511 35,000  Level FlightAware Transoceanic
11:00AM 57.5665 -52.4099 250° West 444 511 35,000  Level FlightAware Transoceanic
11:01AM 57.5248 -52.6261 250° West 444 511 35,000  Level FlightAware Transoceanic
11:02AM 57.4828 -52.8417 250° West 444 511 35,000  Level FlightAware Transoceanic
11:03AM 57.4404 -53.0569 250° West 444 511 35,000  Level FlightAware Transoceanic
11:04AM 57.3977 -53.2716 250° West 444 511 35,000  Level FlightAware Transoceanic
11:05AM 57.3545 -53.4858 249° West 444 511 35,000  Level FlightAware Transoceanic
11:06AM 57.3111 -53.6995 249° West 444 511 35,000  Level FlightAware Transoceanic
11:07AM 57.2672 -53.9126 249° West 444 511 35,000  Level FlightAware Transoceanic
11:08AM 57.2230 -54.1253 249° West 444 511 35,000  Level FlightAware Transoceanic
11:09AM 57.1784 -54.3374 249° West 444 511 35,000  Level FlightAware Transoceanic
11:10AM 57.1335 -54.5491 249° West 444 511 35,000  Level FlightAware Transoceanic
11:11AM 57.0882 -54.7602 248° West 444 511 35,000  Level FlightAware Transoceanic
11:12AM 57.0426 -54.9708 248° West 444 511 35,000  Level FlightAware Transoceanic
11:13AM 56.9966 -55.1809 248° West 444 511 35,000  Level FlightAware Transoceanic
11:14AM 56.9503 -55.3904 248° West 444 511 35,000  Level FlightAware Transoceanic
11:14AM 56.9333 -55.4333 247° West 300 345 35,000  Level Gander Center
11:15AM 56.9036 -55.5995 248° West 444 511 35,000  Level FlightAware Transoceanic
11:15AM 56.8667 -55.7000 246° West 470 541 35,000  Level Gander Center
11:16AM 56.8566 -55.8080 247° West 444 511 35,000  Level FlightAware Transoceanic
11:16AM 56.8167 -55.8833 244° Southwest 470 541 35,000  Level Gander Center
11:17AM 56.8092 -56.0160 247° West 444 511 35,000  Level FlightAware Transoceanic
11:17AM 56.7667 -56.1000 247° West 470 541 35,000  Level Gander Center
11:18AM 56.7615 -56.2234 247° West 444 511 35,000  Level FlightAware Transoceanic
11:19AM 56.7134 -56.4304 247° West 444 511 35,000  Level FlightAware Transoceanic
11:20AM 56.6167 -56.7667 248° West 440 506 35,000  Level Gander Center
11:21AM 56.5833 -56.9833 254° West 440 506 35,000  Level Gander Center
11:22AM 56.5333 -57.1667 244° Southwest 450 518 35,100 300 Climbing Gander Center
11:23AM 56.4500 -57.3167 225° Southwest 450 518 35,700 600 Climbing Gander Center
11:24AM 56.3667 -57.4833 228° Southwest 460 529 36,400 600 Climbing Gander Center
11:25AM 56.2667 -57.6500 223° Southwest 450 518 36,900 300 Climbing Gander Center
11:26AM 56.1667 -57.8333 226° Southwest 450 518 37,000  Climbing Gander Center
11:27AM 56.1000 -57.9667 228° Southwest 460 529 37,000  Level Gander Center
11:28AM 56.0000 -58.1500 226° Southwest 460 529 37,000  Level Gander Center
11:29AM 55.9167 -58.3000 225° Southwest 460 529 37,000  Level Gander Center
11:30AM 55.8167 -58.4500 220° Southwest 450 518 37,000  Level Gander Center
11:31AM 55.7167 -58.6167 223° Southwest 460 529 37,000  Level Gander Center
11:32AM 55.6500 -58.7667 232° Southwest 460 529 37,000  Level Gander Center
11:33AM 55.5500 -58.9500 226° Southwest 460 529 37,000  Level Gander Center
11:34AM 55.4667 -59.1000 226° Southwest 460 529 37,000  Level Gander Center
11:35AM 55.3667 -59.2500 220° Southwest 460 529 37,000  Level Gander Center
11:36AM 55.2667 -59.4000 221° Southwest 460 529 37,000  Level Gander Center
11:37AM 55.1667 -59.5833 226° Southwest 460 529 37,000  Level Gander Center
11:38AM 55.0833 -59.7333 226° Southwest 460 529 37,000  Level Gander Center
11:39AM 55.0000 -59.8833 226° Southwest 460 529 37,000  Level Gander Center
11:40AM 54.9167 -60.0333 226° Southwest 460 529 37,000  Level Gander Center
11:41AM 54.8167 -60.1833 221° Southwest 460 529 37,000  Level Gander Center
11:42AM 54.7167 -60.3333 221° Southwest 460 529 37,000  Level Gander Center
11:43AM 54.6333 -60.4667 223° Southwest 460 529 37,000  Level Gander Center
11:44AM 54.5333 -60.6500 227° Southwest 450 518 37,000  Level Gander Center
11:45AM 54.4500 -60.8000 226° Southwest 450 518 37,000  Level Gander Center
11:46AM 54.3500 -60.9333 218° Southwest 450 518 37,000  Level Gander Center
11:47AM 54.2667 -61.0833 226° Southwest 450 518 37,000 120 Level Gander Center
11:48AM 54.1667 -61.2167 218° Southwest 450 518 37,300 300 Climbing Gander Center
11:49AM 54.0833 -61.3667 227° Southwest 450 518 37,700 300 Climbing Gander Center
11:50AM 53.9833 -61.5167 221° Southwest 450 518 38,000 120 Climbing Gander Center
11:51AM 53.9000 -61.6500 223° Southwest 450 518 38,000  Level Gander Center
11:52AM 53.8000 -61.7833 218° Southwest 450 518 38,000  Level Gander Center
11:53AM 53.7167 -61.9333 227° Southwest 440 506 38,000  Level Gander Center
11:54AM 53.6333 -62.0667 224° Southwest 440 506 38,000  Level Gander Center
11:55AM 53.5333 -62.2167 222° Southwest 430 495 38,000  Level Gander Center
11:56AM 53.4333 -62.3500 218° Southwest 430 495 38,000  Level Gander Center
11:57AM 53.3333 -62.4833 219° Southwest 430 495 38,000  Level Gander Center
11:58AM 53.2500 -62.6167 224° Southwest 430 495 38,000  Level Gander Center
11:59AM 53.1667 -62.7667 227° Southwest 430 495 38,000  Level Gander Center
12:01PM 53.0000 -63.0000 220° Southwest 440 506 38,000  Level Moncton Center
12:02PM 52.9000 -63.1500 222° Southwest 440 506 38,000  Level Moncton Center
12:03PM 52.8000 -63.2833 219° Southwest 440 506 38,000  Level Moncton Center
12:04PM 52.7167 -63.4000 220° Southwest 440 506 38,000  Level Gander Center
12:05PM 52.6167 -63.5333 219° Southwest 440 506 38,000  Level Gander Center
12:06PM 52.5167 -63.6667 219° Southwest 440 506 38,000  Level Gander Center
12:08PM 52.3333 -63.9333 222° Southwest 440 506 38,000  Level Moncton Center
12:09PM 52.2500 -64.0667 224° Southwest 440 506 38,000  Level Moncton Center
12:10PM 52.1667 -64.1833 221° Southwest 440 506 38,000  Level Moncton Center
12:11PM 52.0667 -64.3167 219° Southwest 440 506 38,000  Level Moncton Center
12:12PM 51.9667 -64.4500 219° Southwest 440 506 38,000  Level Moncton Center
12:13PM 51.8833 -64.5833 225° Southwest 440 506 38,000  Level Moncton Center
12:14PM 51.7833 -64.7000 216° Southwest 440 506 38,000  Level Moncton Center
12:15PM 51.6833 -64.8500 223° Southwest 440 506 38,000  Level Gander Center
12:16PM 51.6000 -64.9667 221° Southwest 430 495 38,000  Level Gander Center
12:17PM 51.5000 -65.0667 212° Southwest 430 495 38,000  Level Moncton Center
12:18PM 51.4000 -65.2167 223° Southwest 430 495 38,000  Level Gander Center
12:19PM 51.3333 -65.3000 218° Southwest 430 495 38,000  Level Moncton Center
12:20PM 51.2333 -65.4333 220° Southwest 420 483 38,000  Level Moncton Center
12:21PM 51.1500 -65.5667 225° Southwest 420 483 38,000  Level Moncton Center
12:22PM 51.0333 -65.6667 208° Southwest 420 483 38,000  Level Moncton Center
12:23PM 50.9500 -65.8000 225° Southwest 420 483 38,000  Level Moncton Center
12:25PM 50.7667 -66.0500 221° Southwest 420 483 38,000  Level Gander Center
12:26PM 50.6833 -66.1333 212° Southwest 420 483 38,000  Level Gander Center
12:27PM 50.6000 -66.2667 225° Southwest 410 472 38,000  Level Gander Center
12:28PM 50.5167 -66.3667 217° Southwest 410 472 38,000  Level Moncton Center
12:29PM 50.4167 -66.4833 217° Southwest 410 472 38,000  Level Gander Center
12:30PM 50.3167 -66.6000 217° Southwest 410 472 38,000  Level Gander Center
12:31PM 50.2500 -66.7167 228° Southwest 410 472 38,000  Level Gander Center
12:32PM 50.1500 -66.8000 208° Southwest 410 472 38,000  Level Moncton Center
12:33PM 50.0500 -66.9333 221° Southwest 410 472 38,000  Level Moncton Center
12:34PM 49.9667 -67.0500 222° Southwest 410 472 38,000  Level Moncton Center
12:35PM 49.8833 -67.1500 218° Southwest 410 472 38,000  Level Moncton Center
12:36PM 49.7833 -67.2500 213° Southwest 410 472 38,000  Level Moncton Center
12:38PM 49.6000 -67.4667 217° Southwest 410 472 38,000  Level Moncton Center
12:40PM 49.4333 -67.7000 222° Southwest 400 460 38,000  Level Moncton Center
12:41PM 49.3333 -67.7833 209° Southwest 400 460 38,000  Level Moncton Center
12:42PM 49.2500 -67.8833 218° Southwest 400 460 38,000  Level Moncton Center
12:43PM 49.1500 -68.0000 217° Southwest 400 460 38,000  Level Moncton Center
12:44PM 49.0667 -68.1000 218° Southwest 400 460 38,000  Level Moncton Center
12:45PM 48.9833 -68.2000 218° Southwest 400 460 38,000  Level Moncton Center
12:46PM 48.8833 -68.3167 218° Southwest 400 460 38,000  Level Moncton Center
12:47PM 48.8000 -68.4167 218° Southwest 400 460 38,000  Level Moncton Center
12:48PM 48.7167 -68.5167 218° Southwest 400 460 38,000  Level Moncton Center
12:54PM 48.1630 -69.1380 218° Southwest 406 467 38,000  Level FlightAware
12:55PM 48.1040 -69.2030 216° Southwest 404 465 38,000  Level FlightAware
12:55PM 48.0500 -69.2630 217° Southwest 403 464 38,000  Level FlightAware
12:56PM 47.9750 -69.3460 217° Southwest 404 465 38,000  Level FlightAware
12:57PM 47.9170 -69.4100 216° Southwest 404 465 38,000  Level FlightAware
12:57PM 47.8700 -69.4610 216° Southwest 404 465 38,000  Level FlightAware
12:58PM 47.7960 -69.5420 216° Southwest 405 466 38,000  Level FlightAware
12:59PM 47.7340 -69.6070 215° Southwest 407 468 38,000  Level FlightAware
01:00PM 47.6410 -69.7000 214° Southwest 407 468 38,000  Level FlightAware
01:01PM 47.5710 -69.7700 214° Southwest 407 468 38,000  Level FlightAware
01:01PM 47.5170 -69.8230 214° Southwest 406 467 38,000  Level FlightAware
01:02PM 47.4550 -69.8830 213° Southwest 405 466 38,000  Level FlightAware
01:02PM 47.3920 -69.9450 214° Southwest 405 466 38,000  Level FlightAware
01:03PM 47.3300 -70.0060 214° Southwest 406 467 38,000  Level FlightAware
01:04PM 47.2680 -70.0660 213° Southwest 406 467 38,000  Level FlightAware
01:05PM 47.1970 -70.1350 213° Southwest 406 467 38,000  Level FlightAware
01:05PM 47.1270 -70.2030 213° Southwest 406 467 38,000  Level FlightAware
01:06PM 47.0650 -70.2640 214° Southwest 406 467 38,000  Level FlightAware
01:07PM 46.9950 -70.3310 213° Southwest 407 468 38,000  Level FlightAware
01:07PM 46.9400 -70.3840 213° Southwest 408 470 38,000  Level FlightAware
01:08PM 46.8770 -70.4440 213° Southwest 410 472 38,000  Level FlightAware
01:09PM 46.8140 -70.5050 214° Southwest 411 473 38,000  Level FlightAware
01:09PM 46.7420 -70.5730 213° Southwest 412 474 38,000  Level FlightAware
01:10PM 46.6630 -70.6480 213° Southwest 411 473 38,000  Level FlightAware
01:11PM 46.5880 -70.7190 213° Southwest 409 471 38,000  Level FlightAware
01:12PM 46.5220 -70.7810 213° Southwest 409 471 38,000  Level FlightAware
01:12PM 46.4510 -70.8480 213° Southwest 407 468 38,000  Level FlightAware
01:13PM 46.3790 -70.9150 213° Southwest 406 467 38,000  Level FlightAware
01:14PM 46.3150 -70.9740 212° Southwest 405 466 38,000  Level FlightAware
01:15PM 46.2530 -71.0330 213° Southwest 405 466 38,000  Level FlightAware
01:15PM 46.1910 -71.0910 213° Southwest 404 465 38,000  Level FlightAware
01:16PM 46.1270 -71.1490 212° Southwest 403 464 38,000  Level FlightAware
01:17PM 46.0570 -71.2140 213° Southwest 402 463 38,000  Level FlightAware
01:17PM 46.0110 -71.2570 213° Southwest 402 463 38,000  Level FlightAware
01:18PM 45.9190 -71.3400 212° Southwest 402 463 38,000  Level FlightAware
01:19PM 45.8630 -71.3920 213° Southwest 402 463 38,000  Level FlightAware
01:20PM 45.7850 -71.4630 212° Southwest 402 463 38,000  Level FlightAware
01:20PM 45.7210 -71.5210 212° Southwest 402 463 38,000  Level FlightAware
01:21PM 45.6590 -71.5780 213° Southwest 402 463 38,000  Level FlightAware
01:22PM 45.5880 -71.6410 212° Southwest 403 464 38,000  Level FlightAware
01:22PM 45.5330 -71.6910 212° Southwest 404 465 38,000  Level FlightAware
01:23PM 45.4690 -71.7480 212° Southwest 398 458 38,000  Level FlightAware
01:24PM 45.4050 -71.8050 212° Southwest 400 460 38,000  Level FlightAware
01:24PM 45.3340 -71.8690 212° Southwest 400 460 38,000  Level FlightAware
01:25PM 45.2700 -71.9270 213° Southwest 400 460 38,000  Level FlightAware
01:26PM 45.2070 -71.9830 212° Southwest 402 463 38,000  Level FlightAware
01:26PM 45.1340 -72.0470 212° Southwest 402 463 38,000  Level FlightAware
01:27PM 45.0630 -72.1100 212° Southwest 403 464 38,000  Level FlightAware
01:28PM 44.9970 -72.1670 211° Southwest 405 466 38,000  Level FlightAware
01:28PM 44.9320 -72.2250 212° Southwest 405 466 38,000  Level FlightAware
01:29PM 44.8670 -72.2810 211° Southwest 413 475 38,000  Level FlightAware
01:29PM 44.8430 -72.3030 213° Southwest 413 475 38,000  Level FlightAware
01:30PM 44.7700 -72.3660 212° Southwest 415 478 38,000  Level FlightAware
01:31PM 44.6900 -72.4340 211° Southwest 417 480 38,000  Level FlightAware
01:32PM 44.6160 -72.4930 210° Southwest 419 482 38,000 -180 Level FlightAware
01:32PM 44.5440 -72.5510 210° Southwest 422 486 37,800 -480 Descending FlightAware
01:33PM 44.4770 -72.6050 210° Southwest 423 487 37,400 -660 Descending FlightAware
01:34PM 44.4100 -72.6590 210° Southwest 422 486 37,000 -660 Descending FlightAware
01:34PM 44.3410 -72.7140 210° Southwest 412 474 36,500 -900 Descending FlightAware
01:35PM 44.2740 -72.7680 210° Southwest 415 478 35,800 -1,200 Descending FlightAware
01:36PM 44.1800 -72.8420 209° Southwest 427 491 34,700 -1,080 Descending FlightAware
01:37PM 44.1100 -72.8970 209° Southwest 429 494 34,100 -540 Descending FlightAware
01:37PM 44.0400 -72.9520 209° Southwest 431 496 34,000 -180 Descending FlightAware
01:38PM 43.9590 -73.0120 208° Southwest 443 510 33,900 -600 Descending FlightAware
01:39PM 43.8850 -73.0580 204° Southwest 448 516 33,200 -1,080 Descending FlightAware
01:39PM 43.8030 -73.1120 205° Southwest 438 504 32,500 -1,320 Descending FlightAware
01:40PM 43.7220 -73.1660 206° Southwest 440 506 31,300 -1,200 Descending FlightAware
01:41PM 43.6460 -73.2160 205° Southwest 439 505 30,500 -1,500 Descending FlightAware
01:42PM 43.4960 -73.3150 206° Southwest 448 516 28,100 -1,920 Descending FlightAware
01:44PM 43.3460 -73.4120 205° Southwest 25,700 -1,860 Descending FlightAware
01:44PM 43.2590 -73.4680 205° Southwest 449 517 24,400 -1,020 Descending FlightAware
01:45PM 43.2090 -73.5000 205° Southwest 447 514 24,400  Level FlightAware
01:46PM 43.1440 -73.5420 205° Southwest 447 514 24,400  Level FlightAware
01:46PM 43.0690 -73.5900 205° Southwest 447 514 24,400  Level FlightAware
01:47PM 43.0120 -73.6260 205° Southwest 447 514 24,400  Level FlightAware
01:48PM 42.9350 -73.6750 205° Southwest 447 514 24,400  Level FlightAware
01:48PM 42.8780 -73.7120 205° Southwest 447 514 24,400 -4,560 Level FlightAware
01:50PM 42.7044 -73.8272 205° Southwest 421 484 16,000 -3,780 Descending Boston Center
01:51PM 42.5997 -73.8731 198° South 415 478 16,000  Level Boston Center
01:52PM 42.4825 -73.9236 198° South 405 466 16,000  Level Boston Center
01:53PM 42.3861 -73.9636 197° South 405 466 16,000  Level Boston Center
01:54PM 42.2706 -74.0169 199° South 405 466 16,000  Level Boston Center
01:55PM 42.1764 -74.0594 198° South 405 466 16,000 -120 Level Boston Center
01:56PM 42.0589 -74.1122 198° South 405 466 15,800 -900 Descending Boston Center
01:57PM 41.9558 -74.1708 203° Southwest 405 466 14,200 -1,440 Descending Boston Center
01:58PM 41.8572 -74.2156 199° South 397 457 13,000 -1,200 Descending Boston Center
01:59PM 41.7608 -74.2408 191° South 362 417 11,900 -1,020 Descending Boston Center
02:00PM 41.6875 -74.2719 198° South 328 377 11,000 -900 Descending Boston Center
02:01PM 41.6033 -74.3083 198° South 300 345 10,100 -900 Descending Boston Center
02:02PM 41.5383 -74.3425 201° Southwest 291 335 9,300 -780 Descending Boston Center
02:03PM 41.4867 -74.4353 233° Southwest 275 316 8,600 -660 Descending Boston Center
02:08PM 41.0650 -74.3620 233° Southwest 279 321 4,900 -660 Descending FlightAware
02:09PM 41.0550 -74.3520 143° Southeast 279 321 4,900  Level FlightAware
02:10PM 40.9980 -74.2570 128° Southeast 251 289 4,900 -240 Level FlightAware
02:10PM 40.9860 -74.2240 116° Southeast 240 276 4,600 -960 Descending FlightAware
02:11PM 40.9761 -74.1969 116° Southeast 237 273 4,200 -1,200 Descending FlightAware ADS-B
02:11PM 40.9690 -74.1769 115° Southeast 235 270 3,900 -600 Descending FlightAware ADS-B
02:11PM 40.9616 -74.1560 115° Southeast 219 252 3,900 -360 Level FlightAware ADS-B
02:12PM 40.9414 -74.0989 115° Southeast 202 232 3,500 -600 Descending FlightAware ADS-B
02:12PM 40.9368 -74.0853 114° Southeast 190 219 3,300 -840 Descending FlightAware ADS-B
02:12PM 40.9303 -74.0671 115° Southeast 192 221 3,100 -660 Descending FlightAware ADS-B
02:13PM 40.9261 -74.0554 115° Southeast 192 221 3,000 -420 Descending FlightAware ADS-B
02:13PM 40.9241 -74.0508 120° Southeast 192 221 3,000 -600 Level FlightAware ADS-B
02:13PM 40.9206 -74.0455 131° Southeast 187 215 2,900 -720 Descending FlightAware ADS-B
02:13PM 40.9182 -74.0432 144° Southeast 184 212 2,900  Level FlightAware ADS-B
02:13PM 40.9153 -74.0414 155° Southeast 180 207 2,900  Level FlightAware ADS-B
02:13PM 40.9115 -74.0400 164° South 178 205 2,900  Level FlightAware ADS-B
02:13PM 40.9081 -74.0395 174° South 177 204 2,900  Level FlightAware ADS-B
02:13PM 40.9031 -74.0396 181° South 179 206 2,900  Level FlightAware ADS-B
02:13PM 40.8904 -74.0406 183° South 183 211 2,900  Level FlightAware ADS-B
02:14PM 40.8779 -74.0417 184° South 183 211 2,900  Level FlightAware ADS-B
02:14PM 40.8695 -74.0425 184° South 184 212 2,900  Level FlightAware ADS-B
02:14PM 40.8655 -74.0434 190° South 183 211 2,900  Level FlightAware ADS-B
02:14PM 40.8616 -74.0448 195° South 182 209 2,900  Level FlightAware ADS-B
02:14PM 40.8495 -74.0511 201° Southwest 178 205 2,900  Level FlightAware ADS-B
02:14PM 40.8458 -74.0532 203° Southwest 176 203 2,900  Level FlightAware ADS-B
02:15PM 40.8352 -74.0595 204° Southwest 172 198 2,900 -600 Level FlightAware ADS-B
02:15PM 40.8238 -74.0670 206° Southwest 178 205 2,600 -1,080 Descending FlightAware ADS-B
02:15PM 40.8147 -74.0728 206° Southwest 181 208 2,400 -900 Descending FlightAware ADS-B
02:15PM 40.7975 -74.0836 205° Southwest 182 209 2,100 -1,080 Descending FlightAware ADS-B
02:16PM 40.7884 -74.0894 206° Southwest 186 214 1,800 -1,080 Descending FlightAware ADS-B
02:16PM 40.7758 -74.0973 205° Southwest 184 212 1,600 -960 Descending FlightAware ADS-B
02:16PM 40.7637 -74.1047 205° Southwest 178 205 1,300 -960 Descending FlightAware ADS-B
02:16PM 40.7526 -74.1119 206° Southwest 166 191 1,100 -780 Descending FlightAware ADS-B
02:17PM 40.7414 -74.1190 206° Southwest 154 177 900 -780 Descending FlightAware ADS-B
02:18PM 40.7047 -74.1420 205° Southwest 146 168 100 -780 Descending FlightAware ADS-B